sensor_id;sensor_type;location;lat;lon;timestamp;P1;durP1;ratioP1;P2;durP2;ratioP2
25559;SDS011;13450;49.374;8.584;2023-06-14T00:00:16;3.83;;;2.05;;
25559;SDS011;13450;49.374;8.584;2023-06-14T00:02:41;4.50;;;2.00;;
25559;SDS011;13450;49.374;8.584;2023-06-14T00:05:09;4.15;;;2.22;;
25559;SDS011;13450;49.374;8.584;2023-06-14T00:07:40;4.80;;;2.10;;
25559;SDS011;13450;49.374;8.584;2023-06-14T00:10:07;4.05;;;2.10;;
25559;SDS011;13450;49.374;8.584;2023-06-14T00:12:33;4.82;;;2.42;;
25559;SDS011;13450;49.374;8.584;2023-06-14T00:14:59;4.25;;;2.15;;
25559;SDS011;13450;49.374;8.584;2023-06-14T00:17:26;3.63;;;2.00;;
25559;SDS011;13450;49.374;8.584;2023-06-14T00:19:55;4.57;;;2.28;;
25559;SDS011;13450;49.374;8.584;2023-06-14T00:22:23;4.05;;;2.15;;
25559;SDS011;13450;49.374;8.584;2023-06-14T00:24:52;6.60;;;2.22;;
25559;SDS011;13450;49.374;8.584;2023-06-14T00:27:18;5.50;;;2.40;;
25559;SDS011;13450;49.374;8.584;2023-06-14T00:29:43;3.00;;;1.80;;
25559;SDS011;13450;49.374;8.584;2023-06-14T00:32:08;4.22;;;2.10;;
25559;SDS011;13450;49.374;8.584;2023-06-14T00:34:36;3.80;;;1.95;;
25559;SDS011;13450;49.374;8.584;2023-06-14T00:37:04;4.40;;;2.33;;
25559;SDS011;13450;49.374;8.584;2023-06-14T00:39:32;4.82;;;2.45;;
25559;SDS011;13450;49.374;8.584;2023-06-14T00:41:58;4.28;;;2.25;;
25559;SDS011;13450;49.374;8.584;2023-06-14T00:44:24;5.43;;;2.08;;
25559;SDS011;13450;49.374;8.584;2023-06-14T00:46:53;5.55;;;2.35;;
25559;SDS011;13450;49.374;8.584;2023-06-14T00:49:18;4.03;;;2.03;;
25559;SDS011;13450;49.374;8.584;2023-06-14T00:51:46;4.33;;;2.07;;
25559;SDS011;13450;49.374;8.584;2023-06-14T00:54:11;4.90;;;2.17;;
25559;SDS011;13450;49.374;8.584;2023-06-14T00:56:37;4.93;;;2.45;;
25559;SDS011;13450;49.374;8.584;2023-06-14T00:59:05;3.65;;;2.08;;
25559;SDS011;13450;49.374;8.584;2023-06-14T01:01:31;4.30;;;2.30;;
25559;SDS011;13450;49.374;8.584;2023-06-14T01:03:59;4.53;;;2.17;;
25559;SDS011;13450;49.374;8.584;2023-06-14T01:12:29;6.17;;;2.33;;
25559;SDS011;13450;49.374;8.584;2023-06-14T01:15:00;5.50;;;2.10;;
25559;SDS011;13450;49.374;8.584;2023-06-14T01:17:27;7.45;;;2.28;;
25559;SDS011;13450;49.374;8.584;2023-06-14T01:19:56;3.63;;;1.98;;
25559;SDS011;13450;49.374;8.584;2023-06-14T01:22:26;3.60;;;2.03;;
25559;SDS011;13450;49.374;8.584;2023-06-14T01:24:52;3.30;;;1.92;;
25559;SDS011;13450;49.374;8.584;2023-06-14T01:27:26;4.82;;;2.20;;
25559;SDS011;13450;49.374;8.584;2023-06-14T01:29:54;6.20;;;2.22;;
25559;SDS011;13450;49.374;8.584;2023-06-14T01:32:24;3.17;;;1.70;;
25559;SDS011;13450;49.374;8.584;2023-06-14T01:34:54;3.97;;;1.98;;
25559;SDS011;13450;49.374;8.584;2023-06-14T01:37:20;4.55;;;2.33;;
25559;SDS011;13450;49.374;8.584;2023-06-14T01:39:47;4.03;;;2.08;;
25559;SDS011;13450;49.374;8.584;2023-06-14T01:44:42;5.18;;;2.13;;
25559;SDS011;13450;49.374;8.584;2023-06-14T01:47:12;3.92;;;2.03;;
25559;SDS011;13450;49.374;8.584;2023-06-14T01:49:39;4.50;;;2.20;;
25559;SDS011;13450;49.374;8.584;2023-06-14T01:52:05;3.92;;;1.90;;
25559;SDS011;13450;49.374;8.584;2023-06-14T01:54:34;4.07;;;2.10;;
25559;SDS011;13450;49.374;8.584;2023-06-14T01:57:02;3.30;;;1.77;;
25559;SDS011;13450;49.374;8.584;2023-06-14T01:59:28;5.68;;;2.42;;
25559;SDS011;13450;49.374;8.584;2023-06-14T02:01:53;4.85;;;2.15;;
25559;SDS011;13450;49.374;8.584;2023-06-14T02:04:19;5.85;;;2.42;;
25559;SDS011;13450;49.374;8.584;2023-06-14T02:06:44;3.60;;;1.90;;
25559;SDS011;13450;49.374;8.584;2023-06-14T02:09:12;4.93;;;2.38;;
25559;SDS011;13450;49.374;8.584;2023-06-14T02:11:39;3.55;;;1.98;;
25559;SDS011;13450;49.374;8.584;2023-06-14T02:14:07;3.88;;;2.20;;
25559;SDS011;13450;49.374;8.584;2023-06-14T02:16:36;4.05;;;2.10;;
25559;SDS011;13450;49.374;8.584;2023-06-14T02:19:02;5.00;;;2.08;;
25559;SDS011;13450;49.374;8.584;2023-06-14T02:21:27;4.53;;;2.00;;
25559;SDS011;13450;49.374;8.584;2023-06-14T02:23:53;3.78;;;2.30;;
25559;SDS011;13450;49.374;8.584;2023-06-14T02:26:26;5.00;;;2.20;;
25559;SDS011;13450;49.374;8.584;2023-06-14T02:28:54;4.93;;;2.60;;
25559;SDS011;13450;49.374;8.584;2023-06-14T02:31:22;3.20;;;1.63;;
25559;SDS011;13450;49.374;8.584;2023-06-14T02:33:54;5.93;;;2.25;;
25559;SDS011;13450;49.374;8.584;2023-06-14T02:37:18;4.80;;;2.42;;
25559;SDS011;13450;49.374;8.584;2023-06-14T02:40:04;4.00;;;2.10;;
25559;SDS011;13450;49.374;8.584;2023-06-14T02:43:17;5.10;;;2.45;;
25559;SDS011;13450;49.374;8.584;2023-06-14T02:45:42;4.43;;;2.25;;
25559;SDS011;13450;49.374;8.584;2023-06-14T02:48:07;4.38;;;2.60;;
25559;SDS011;13450;49.374;8.584;2023-06-14T02:50:33;3.78;;;2.08;;
25559;SDS011;13450;49.374;8.584;2023-06-14T02:52:58;4.57;;;2.47;;
25559;SDS011;13450;49.374;8.584;2023-06-14T02:55:23;4.15;;;1.95;;
25559;SDS011;13450;49.374;8.584;2023-06-14T02:57:49;5.93;;;2.35;;
25559;SDS011;13450;49.374;8.584;2023-06-14T03:00:15;3.78;;;2.28;;
25559;SDS011;13450;49.374;8.584;2023-06-14T03:02:40;5.63;;;2.00;;
25559;SDS011;13450;49.374;8.584;2023-06-14T03:05:07;4.40;;;2.30;;
25559;SDS011;13450;49.374;8.584;2023-06-14T03:07:35;5.05;;;2.08;;
25559;SDS011;13450;49.374;8.584;2023-06-14T03:10:05;3.42;;;1.80;;
25559;SDS011;13450;49.374;8.584;2023-06-14T03:12:33;5.05;;;2.30;;
25559;SDS011;13450;49.374;8.584;2023-06-14T03:14:58;4.28;;;2.20;;
25559;SDS011;13450;49.374;8.584;2023-06-14T03:17:27;5.10;;;2.63;;
25559;SDS011;13450;49.374;8.584;2023-06-14T03:19:54;7.28;;;2.80;;
25559;SDS011;13450;49.374;8.584;2023-06-14T03:22:20;5.10;;;2.75;;
25559;SDS011;13450;49.374;8.584;2023-06-14T03:24:46;6.72;;;3.30;;
25559;SDS011;13450;49.374;8.584;2023-06-14T03:27:12;5.53;;;3.33;;
25559;SDS011;13450;49.374;8.584;2023-06-14T03:29:39;8.93;;;3.55;;
25559;SDS011;13450;49.374;8.584;2023-06-14T03:32:05;5.85;;;3.08;;
25559;SDS011;13450;49.374;8.584;2023-06-14T03:34:30;7.03;;;3.10;;
25559;SDS011;13450;49.374;8.584;2023-06-14T03:36:56;6.20;;;2.90;;
25559;SDS011;13450;49.374;8.584;2023-06-14T03:39:21;4.18;;;2.47;;
25559;SDS011;13450;49.374;8.584;2023-06-14T03:41:47;6.03;;;2.58;;
25559;SDS011;13450;49.374;8.584;2023-06-14T03:44:14;6.15;;;3.05;;
25559;SDS011;13450;49.374;8.584;2023-06-14T03:46:43;6.72;;;2.55;;
25559;SDS011;13450;49.374;8.584;2023-06-14T03:49:11;4.70;;;2.10;;
25559;SDS011;13450;49.374;8.584;2023-06-14T03:51:36;6.80;;;3.03;;
25559;SDS011;13450;49.374;8.584;2023-06-14T03:54:05;5.93;;;3.10;;
25559;SDS011;13450;49.374;8.584;2023-06-14T03:56:31;6.32;;;3.00;;
25559;SDS011;13450;49.374;8.584;2023-06-14T03:58:59;7.88;;;3.28;;
25559;SDS011;13450;49.374;8.584;2023-06-14T04:01:24;5.07;;;2.78;;
25559;SDS011;13450;49.374;8.584;2023-06-14T04:03:57;5.93;;;3.13;;
25559;SDS011;13450;49.374;8.584;2023-06-14T04:06:22;7.37;;;3.63;;
25559;SDS011;13450;49.374;8.584;2023-06-14T04:08:50;4.95;;;2.95;;
25559;SDS011;13450;49.374;8.584;2023-06-14T04:11:15;9.23;;;3.15;;
25559;SDS011;13450;49.374;8.584;2023-06-14T04:13:41;5.85;;;3.25;;
25559;SDS011;13450;49.374;8.584;2023-06-14T04:16:08;5.60;;;2.75;;
25559;SDS011;13450;49.374;8.584;2023-06-14T04:18:34;5.68;;;2.55;;
25559;SDS011;13450;49.374;8.584;2023-06-14T04:20:59;6.30;;;3.45;;
25559;SDS011;13450;49.374;8.584;2023-06-14T04:23:25;5.35;;;3.10;;
25559;SDS011;13450;49.374;8.584;2023-06-14T04:25:53;5.15;;;2.40;;
25559;SDS011;13450;49.374;8.584;2023-06-14T04:28:18;7.63;;;2.72;;
25559;SDS011;13450;49.374;8.584;2023-06-14T04:30:51;6.15;;;2.90;;
25559;SDS011;13450;49.374;8.584;2023-06-14T04:33:18;6.45;;;3.60;;
25559;SDS011;13450;49.374;8.584;2023-06-14T04:35:44;10.95;;;3.72;;
25559;SDS011;13450;49.374;8.584;2023-06-14T04:38:18;6.68;;;2.80;;
25559;SDS011;13450;49.374;8.584;2023-06-14T04:40:49;5.43;;;2.90;;
25559;SDS011;13450;49.374;8.584;2023-06-14T04:43:20;5.43;;;3.30;;
25559;SDS011;13450;49.374;8.584;2023-06-14T04:45:52;8.23;;;3.40;;
25559;SDS011;13450;49.374;8.584;2023-06-14T04:48:19;6.57;;;2.58;;
25559;SDS011;13450;49.374;8.584;2023-06-14T04:50:45;6.97;;;3.28;;
25559;SDS011;13450;49.374;8.584;2023-06-14T04:53:11;5.50;;;3.30;;
25559;SDS011;13450;49.374;8.584;2023-06-14T04:55:39;5.50;;;3.20;;
25559;SDS011;13450;49.374;8.584;2023-06-14T04:58:04;5.90;;;2.85;;
25559;SDS011;13450;49.374;8.584;2023-06-14T05:00:30;4.22;;;2.17;;
25559;SDS011;13450;49.374;8.584;2023-06-14T05:02:55;4.82;;;2.40;;
25559;SDS011;13450;49.374;8.584;2023-06-14T05:05:22;8.35;;;3.25;;
25559;SDS011;13450;49.374;8.584;2023-06-14T05:07:47;6.22;;;3.30;;
25559;SDS011;13450;49.374;8.584;2023-06-14T05:10:12;5.72;;;2.53;;
25559;SDS011;13450;49.374;8.584;2023-06-14T05:12:38;8.65;;;2.92;;
25559;SDS011;13450;49.374;8.584;2023-06-14T05:15:04;5.57;;;2.13;;
25559;SDS011;13450;49.374;8.584;2023-06-14T05:17:29;5.25;;;3.08;;
25559;SDS011;13450;49.374;8.584;2023-06-14T05:19:55;5.38;;;2.80;;
25559;SDS011;13450;49.374;8.584;2023-06-14T05:22:22;5.13;;;2.50;;
25559;SDS011;13450;49.374;8.584;2023-06-14T05:24:48;8.38;;;3.22;;
25559;SDS011;13450;49.374;8.584;2023-06-14T05:27:13;4.63;;;2.50;;
25559;SDS011;13450;49.374;8.584;2023-06-14T05:29:38;5.75;;;2.67;;
25559;SDS011;13450;49.374;8.584;2023-06-14T05:32:04;5.38;;;2.60;;
25559;SDS011;13450;49.374;8.584;2023-06-14T05:34:32;7.25;;;3.00;;
25559;SDS011;13450;49.374;8.584;2023-06-14T05:36:59;11.57;;;2.88;;
25559;SDS011;13450;49.374;8.584;2023-06-14T05:39:25;4.95;;;3.00;;
25559;SDS011;13450;49.374;8.584;2023-06-14T05:41:50;4.32;;;2.40;;
25559;SDS011;13450;49.374;8.584;2023-06-14T05:44:16;5.45;;;3.00;;
25559;SDS011;13450;49.374;8.584;2023-06-14T05:46:41;5.38;;;2.58;;
25559;SDS011;13450;49.374;8.584;2023-06-14T05:49:06;7.28;;;2.90;;
25559;SDS011;13450;49.374;8.584;2023-06-14T05:51:32;12.93;;;3.05;;
25559;SDS011;13450;49.374;8.584;2023-06-14T05:53:57;5.57;;;3.00;;
25559;SDS011;13450;49.374;8.584;2023-06-14T05:56:22;6.82;;;3.22;;
25559;SDS011;13450;49.374;8.584;2023-06-14T05:58:48;6.80;;;2.53;;
25559;SDS011;13450;49.374;8.584;2023-06-14T06:01:16;6.53;;;3.08;;
25559;SDS011;13450;49.374;8.584;2023-06-14T06:03:42;6.38;;;2.72;;
25559;SDS011;13450;49.374;8.584;2023-06-14T06:06:10;6.75;;;2.83;;
25559;SDS011;13450;49.374;8.584;2023-06-14T06:08:38;5.65;;;3.10;;
25559;SDS011;13450;49.374;8.584;2023-06-14T06:11:04;5.25;;;2.75;;
25559;SDS011;13450;49.374;8.584;2023-06-14T06:13:29;6.00;;;2.90;;
25559;SDS011;13450;49.374;8.584;2023-06-14T06:15:54;7.25;;;3.22;;
25559;SDS011;13450;49.374;8.584;2023-06-14T06:18:21;6.88;;;3.20;;
25559;SDS011;13450;49.374;8.584;2023-06-14T06:20:46;6.25;;;3.13;;
25559;SDS011;13450;49.374;8.584;2023-06-14T06:23:12;5.10;;;2.83;;
25559;SDS011;13450;49.374;8.584;2023-06-14T06:25:37;7.97;;;3.20;;
25559;SDS011;13450;49.374;8.584;2023-06-14T06:28:03;6.72;;;2.97;;
25559;SDS011;13450;49.374;8.584;2023-06-14T06:30:28;8.55;;;3.65;;
25559;SDS011;13450;49.374;8.584;2023-06-14T06:32:53;5.65;;;3.03;;
25559;SDS011;13450;49.374;8.584;2023-06-14T06:35:20;5.22;;;3.03;;
25559;SDS011;13450;49.374;8.584;2023-06-14T06:37:46;6.93;;;3.28;;
25559;SDS011;13450;49.374;8.584;2023-06-14T06:40:11;6.82;;;3.08;;
25559;SDS011;13450;49.374;8.584;2023-06-14T06:42:37;6.78;;;2.80;;
25559;SDS011;13450;49.374;8.584;2023-06-14T06:45:05;7.85;;;2.80;;
25559;SDS011;13450;49.374;8.584;2023-06-14T06:47:31;6.07;;;3.05;;
25559;SDS011;13450;49.374;8.584;2023-06-14T06:49:56;6.80;;;3.33;;
25559;SDS011;13450;49.374;8.584;2023-06-14T06:52:21;4.50;;;2.40;;
25559;SDS011;13450;49.374;8.584;2023-06-14T06:54:47;5.75;;;2.88;;
25559;SDS011;13450;49.374;8.584;2023-06-14T06:57:14;6.60;;;3.00;;
25559;SDS011;13450;49.374;8.584;2023-06-14T06:59:40;7.18;;;2.90;;
25559;SDS011;13450;49.374;8.584;2023-06-14T07:02:07;6.88;;;2.42;;
25559;SDS011;13450;49.374;8.584;2023-06-14T07:04:35;6.05;;;3.38;;
25559;SDS011;13450;49.374;8.584;2023-06-14T07:07:00;5.68;;;3.30;;
25559;SDS011;13450;49.374;8.584;2023-06-14T07:09:26;6.03;;;3.08;;
25559;SDS011;13450;49.374;8.584;2023-06-14T07:11:51;7.97;;;2.80;;
25559;SDS011;13450;49.374;8.584;2023-06-14T07:14:17;4.85;;;2.55;;
25559;SDS011;13450;49.374;8.584;2023-06-14T07:16:42;5.55;;;2.50;;
25559;SDS011;13450;49.374;8.584;2023-06-14T07:19:08;6.32;;;2.72;;
25559;SDS011;13450;49.374;8.584;2023-06-14T07:21:34;5.25;;;2.30;;
25559;SDS011;13450;49.374;8.584;2023-06-14T07:24:00;4.90;;;2.58;;
25559;SDS011;13450;49.374;8.584;2023-06-14T07:26:25;3.70;;;2.05;;
25559;SDS011;13450;49.374;8.584;2023-06-14T07:28:51;3.67;;;2.22;;
25559;SDS011;13450;49.374;8.584;2023-06-14T07:31:16;5.97;;;2.78;;
25559;SDS011;13450;49.374;8.584;2023-06-14T07:33:43;6.72;;;2.58;;
25559;SDS011;13450;49.374;8.584;2023-06-14T07:36:08;4.10;;;2.30;;
25559;SDS011;13450;49.374;8.584;2023-06-14T07:38:38;5.80;;;2.80;;
25559;SDS011;13450;49.374;8.584;2023-06-14T07:41:05;4.80;;;2.40;;
25559;SDS011;13450;49.374;8.584;2023-06-14T07:43:30;4.18;;;2.00;;
25559;SDS011;13450;49.374;8.584;2023-06-14T07:45:56;4.85;;;2.45;;
25559;SDS011;13450;49.374;8.584;2023-06-14T07:48:22;5.38;;;2.40;;
25559;SDS011;13450;49.374;8.584;2023-06-14T07:50:49;4.35;;;2.13;;
25559;SDS011;13450;49.374;8.584;2023-06-14T07:53:15;4.28;;;2.50;;
25559;SDS011;13450;49.374;8.584;2023-06-14T07:55:40;5.03;;;2.03;;
25559;SDS011;13450;49.374;8.584;2023-06-14T07:58:07;7.07;;;2.70;;
25559;SDS011;13450;49.374;8.584;2023-06-14T08:00:32;5.05;;;2.10;;
25559;SDS011;13450;49.374;8.584;2023-06-14T08:02:58;5.15;;;2.35;;
25559;SDS011;13450;49.374;8.584;2023-06-14T08:05:24;7.82;;;2.92;;
25559;SDS011;13450;49.374;8.584;2023-06-14T08:07:54;4.35;;;2.50;;
25559;SDS011;13450;49.374;8.584;2023-06-14T08:10:23;4.60;;;2.50;;
25559;SDS011;13450;49.374;8.584;2023-06-14T08:12:48;5.20;;;2.53;;
25559;SDS011;13450;49.374;8.584;2023-06-14T08:15:16;4.32;;;2.38;;
25559;SDS011;13450;49.374;8.584;2023-06-14T08:17:42;5.47;;;2.70;;
25559;SDS011;13450;49.374;8.584;2023-06-14T08:20:09;7.93;;;2.55;;
25559;SDS011;13450;49.374;8.584;2023-06-14T08:22:35;5.57;;;2.42;;
25559;SDS011;13450;49.374;8.584;2023-06-14T08:25:01;4.30;;;2.40;;
25559;SDS011;13450;49.374;8.584;2023-06-14T08:27:26;5.03;;;2.45;;
25559;SDS011;13450;49.374;8.584;2023-06-14T08:29:52;4.20;;;2.08;;
25559;SDS011;13450;49.374;8.584;2023-06-14T08:32:17;5.68;;;2.13;;
25559;SDS011;13450;49.374;8.584;2023-06-14T08:34:43;4.10;;;2.42;;
25559;SDS011;13450;49.374;8.584;2023-06-14T08:37:08;4.68;;;2.45;;
25559;SDS011;13450;49.374;8.584;2023-06-14T08:39:33;5.05;;;2.50;;
25559;SDS011;13450;49.374;8.584;2023-06-14T08:41:59;5.07;;;2.40;;
25559;SDS011;13450;49.374;8.584;2023-06-14T08:44:27;5.28;;;2.25;;
25559;SDS011;13450;49.374;8.584;2023-06-14T08:46:53;6.80;;;2.38;;
25559;SDS011;13450;49.374;8.584;2023-06-14T08:49:22;4.13;;;2.38;;
25559;SDS011;13450;49.374;8.584;2023-06-14T08:51:50;7.55;;;2.47;;
25559;SDS011;13450;49.374;8.584;2023-06-14T08:54:22;4.93;;;2.10;;
25559;SDS011;13450;49.374;8.584;2023-06-14T08:56:49;4.47;;;2.35;;
25559;SDS011;13450;49.374;8.584;2023-06-14T08:59:16;6.95;;;2.67;;
25559;SDS011;13450;49.374;8.584;2023-06-14T09:01:43;5.30;;;2.00;;
25559;SDS011;13450;49.374;8.584;2023-06-14T09:04:10;4.55;;;2.10;;
25559;SDS011;13450;49.374;8.584;2023-06-14T09:06:35;3.80;;;2.10;;
25559;SDS011;13450;49.374;8.584;2023-06-14T09:09:02;6.90;;;1.92;;
25559;SDS011;13450;49.374;8.584;2023-06-14T09:11:30;4.88;;;2.03;;
25559;SDS011;13450;49.374;8.584;2023-06-14T09:13:55;4.40;;;2.17;;
25559;SDS011;13450;49.374;8.584;2023-06-14T09:16:23;6.85;;;2.40;;
25559;SDS011;13450;49.374;8.584;2023-06-14T09:18:50;4.88;;;2.20;;
25559;SDS011;13450;49.374;8.584;2023-06-14T09:21:16;6.10;;;2.38;;
25559;SDS011;13450;49.374;8.584;2023-06-14T09:23:46;4.40;;;2.47;;
25559;SDS011;13450;49.374;8.584;2023-06-14T09:26:16;4.53;;;2.08;;
25559;SDS011;13450;49.374;8.584;2023-06-14T09:28:48;4.32;;;1.88;;
25559;SDS011;13450;49.374;8.584;2023-06-14T09:31:15;7.15;;;2.38;;
25559;SDS011;13450;49.374;8.584;2023-06-14T09:33:42;4.18;;;2.15;;
25559;SDS011;13450;49.374;8.584;2023-06-14T09:36:23;4.20;;;2.30;;
25559;SDS011;13450;49.374;8.584;2023-06-14T09:38:53;4.05;;;2.00;;
25559;SDS011;13450;49.374;8.584;2023-06-14T09:41:19;5.38;;;1.77;;
25559;SDS011;13450;49.374;8.584;2023-06-14T09:43:46;5.53;;;1.80;;
25559;SDS011;13450;49.374;8.584;2023-06-14T09:46:12;4.15;;;1.80;;
25559;SDS011;13450;49.374;8.584;2023-06-14T09:48:38;3.58;;;1.90;;
25559;SDS011;13450;49.374;8.584;2023-06-14T09:51:07;3.70;;;1.77;;
25559;SDS011;13450;49.374;8.584;2023-06-14T09:53:35;3.45;;;1.98;;
25559;SDS011;13450;49.374;8.584;2023-06-14T09:56:02;3.80;;;1.70;;
25559;SDS011;13450;49.374;8.584;2023-06-14T09:58:28;4.05;;;2.00;;
25559;SDS011;13450;49.374;8.584;2023-06-14T10:00:55;3.93;;;2.20;;
25559;SDS011;13450;49.374;8.584;2023-06-14T10:03:28;3.30;;;1.85;;
25559;SDS011;13450;49.374;8.584;2023-06-14T10:05:58;4.85;;;1.55;;
25559;SDS011;13450;49.374;8.584;2023-06-14T10:08:27;3.35;;;1.70;;
25559;SDS011;13450;49.374;8.584;2023-06-14T10:10:58;3.10;;;1.50;;
25559;SDS011;13450;49.374;8.584;2023-06-14T10:13:26;4.40;;;1.90;;
25559;SDS011;13450;49.374;8.584;2023-06-14T10:16:08;4.63;;;1.65;;
25559;SDS011;13450;49.374;8.584;2023-06-14T10:21:29;5.20;;;1.70;;
25559;SDS011;13450;49.374;8.584;2023-06-14T10:24:07;5.47;;;2.10;;
25559;SDS011;13450;49.374;8.584;2023-06-14T10:32:19;6.03;;;2.33;;
25559;SDS011;13450;49.374;8.584;2023-06-14T10:34:45;5.90;;;1.98;;
25559;SDS011;13450;49.374;8.584;2023-06-14T10:37:18;3.65;;;1.90;;
25559;SDS011;13450;49.374;8.584;2023-06-14T10:39:44;3.72;;;1.85;;
25559;SDS011;13450;49.374;8.584;2023-06-14T10:42:13;5.00;;;2.00;;
25559;SDS011;13450;49.374;8.584;2023-06-14T10:44:45;4.95;;;2.20;;
25559;SDS011;13450;49.374;8.584;2023-06-14T10:47:21;4.13;;;1.98;;
25559;SDS011;13450;49.374;8.584;2023-06-14T10:49:52;3.55;;;1.85;;
25559;SDS011;13450;49.374;8.584;2023-06-14T10:52:24;4.90;;;1.80;;
25559;SDS011;13450;49.374;8.584;2023-06-14T10:57:34;5.35;;;2.45;;
25559;SDS011;13450;49.374;8.584;2023-06-14T11:00:02;4.05;;;2.20;;
25559;SDS011;13450;49.374;8.584;2023-06-14T11:05:15;3.72;;;2.28;;
25559;SDS011;13450;49.374;8.584;2023-06-14T11:10:35;4.68;;;2.20;;
25559;SDS011;13450;49.374;8.584;2023-06-14T11:13:02;3.30;;;1.88;;
25559;SDS011;13450;49.374;8.584;2023-06-14T11:15:29;4.63;;;2.00;;
25559;SDS011;13450;49.374;8.584;2023-06-14T11:18:01;5.35;;;2.17;;
25559;SDS011;13450;49.374;8.584;2023-06-14T11:20:29;4.00;;;1.80;;
25559;SDS011;13450;49.374;8.584;2023-06-14T11:22:56;3.80;;;2.15;;
25559;SDS011;13450;49.374;8.584;2023-06-14T11:25:21;5.47;;;2.33;;
25559;SDS011;13450;49.374;8.584;2023-06-14T11:27:48;3.95;;;1.90;;
25559;SDS011;13450;49.374;8.584;2023-06-14T11:30:15;3.75;;;1.98;;
25559;SDS011;13450;49.374;8.584;2023-06-14T11:32:40;3.30;;;2.13;;
25559;SDS011;13450;49.374;8.584;2023-06-14T11:35:06;4.07;;;1.83;;
25559;SDS011;13450;49.374;8.584;2023-06-14T11:37:32;5.18;;;2.20;;
25559;SDS011;13450;49.374;8.584;2023-06-14T11:40:01;3.95;;;1.75;;
25559;SDS011;13450;49.374;8.584;2023-06-14T11:42:29;4.30;;;2.45;;
25559;SDS011;13450;49.374;8.584;2023-06-14T11:44:55;4.40;;;1.90;;
25559;SDS011;13450;49.374;8.584;2023-06-14T11:47:21;3.90;;;1.88;;
25559;SDS011;13450;49.374;8.584;2023-06-14T11:49:47;3.65;;;1.88;;
25559;SDS011;13450;49.374;8.584;2023-06-14T11:52:12;4.57;;;2.17;;
25559;SDS011;13450;49.374;8.584;2023-06-14T11:54:38;3.78;;;1.77;;
25559;SDS011;13450;49.374;8.584;2023-06-14T11:57:06;4.43;;;2.30;;
25559;SDS011;13450;49.374;8.584;2023-06-14T11:59:37;2.97;;;1.60;;
25559;SDS011;13450;49.374;8.584;2023-06-14T12:02:03;3.53;;;2.10;;
25559;SDS011;13450;49.374;8.584;2023-06-14T12:04:29;4.00;;;2.10;;
25559;SDS011;13450;49.374;8.584;2023-06-14T12:06:55;5.47;;;1.90;;
25559;SDS011;13450;49.374;8.584;2023-06-14T12:09:22;4.77;;;1.90;;
25559;SDS011;13450;49.374;8.584;2023-06-14T12:11:49;5.43;;;1.88;;
25559;SDS011;13450;49.374;8.584;2023-06-14T12:14:14;4.25;;;1.95;;
25559;SDS011;13450;49.374;8.584;2023-06-14T12:16:41;4.65;;;1.65;;
25559;SDS011;13450;49.374;8.584;2023-06-14T12:19:08;3.90;;;1.90;;
25559;SDS011;13450;49.374;8.584;2023-06-14T12:21:38;5.57;;;2.00;;
25559;SDS011;13450;49.374;8.584;2023-06-14T12:24:07;5.25;;;2.33;;
25559;SDS011;13450;49.374;8.584;2023-06-14T12:26:33;3.70;;;2.15;;
25559;SDS011;13450;49.374;8.584;2023-06-14T12:29:04;5.03;;;2.00;;
25559;SDS011;13450;49.374;8.584;2023-06-14T12:31:30;3.60;;;1.90;;
25559;SDS011;13450;49.374;8.584;2023-06-14T12:33:58;3.08;;;1.77;;
25559;SDS011;13450;49.374;8.584;2023-06-14T12:36:26;4.80;;;2.15;;
25559;SDS011;13450;49.374;8.584;2023-06-14T12:38:54;5.30;;;1.80;;
25559;SDS011;13450;49.374;8.584;2023-06-14T12:41:20;3.10;;;1.75;;
25559;SDS011;13450;49.374;8.584;2023-06-14T12:43:49;3.70;;;1.98;;
25559;SDS011;13450;49.374;8.584;2023-06-14T12:46:14;4.82;;;1.90;;
25559;SDS011;13450;49.374;8.584;2023-06-14T12:48:40;4.53;;;1.73;;
25559;SDS011;13450;49.374;8.584;2023-06-14T12:51:05;3.17;;;1.80;;
25559;SDS011;13450;49.374;8.584;2023-06-14T12:53:30;3.60;;;2.00;;
25559;SDS011;13450;49.374;8.584;2023-06-14T12:55:56;3.22;;;2.00;;
25559;SDS011;13450;49.374;8.584;2023-06-14T12:58:21;3.00;;;1.63;;
25559;SDS011;13450;49.374;8.584;2023-06-14T13:00:48;4.45;;;1.92;;
25559;SDS011;13450;49.374;8.584;2023-06-14T13:03:14;5.35;;;2.00;;
25559;SDS011;13450;49.374;8.584;2023-06-14T13:05:39;4.43;;;1.92;;
25559;SDS011;13450;49.374;8.584;2023-06-14T13:08:06;5.13;;;2.05;;
25559;SDS011;13450;49.374;8.584;2023-06-14T13:10:33;6.73;;;2.00;;
25559;SDS011;13450;49.374;8.584;2023-06-14T13:12:59;3.53;;;1.73;;
25559;SDS011;13450;49.374;8.584;2023-06-14T13:15:25;3.38;;;2.00;;
25559;SDS011;13450;49.374;8.584;2023-06-14T13:17:50;5.25;;;2.08;;
25559;SDS011;13450;49.374;8.584;2023-06-14T13:20:16;3.08;;;1.50;;
25559;SDS011;13450;49.374;8.584;2023-06-14T13:22:41;3.67;;;1.73;;
25559;SDS011;13450;49.374;8.584;2023-06-14T13:25:07;3.17;;;1.83;;
25559;SDS011;13450;49.374;8.584;2023-06-14T13:27:32;3.20;;;2.03;;
25559;SDS011;13450;49.374;8.584;2023-06-14T13:29:58;3.80;;;1.75;;
25559;SDS011;13450;49.374;8.584;2023-06-14T13:32:23;4.65;;;2.13;;
25559;SDS011;13450;49.374;8.584;2023-06-14T13:34:48;5.30;;;2.00;;
25559;SDS011;13450;49.374;8.584;2023-06-14T13:37:14;4.70;;;2.05;;
25559;SDS011;13450;49.374;8.584;2023-06-14T13:39:42;3.88;;;2.00;;
25559;SDS011;13450;49.374;8.584;2023-06-14T13:42:07;3.55;;;1.90;;
25559;SDS011;13450;49.374;8.584;2023-06-14T13:44:32;5.90;;;2.20;;
25559;SDS011;13450;49.374;8.584;2023-06-14T13:46:58;4.63;;;2.22;;
25559;SDS011;13450;49.374;8.584;2023-06-14T13:49:23;6.13;;;2.53;;
25559;SDS011;13450;49.374;8.584;2023-06-14T13:51:48;4.88;;;2.03;;
25559;SDS011;13450;49.374;8.584;2023-06-14T13:54:14;3.22;;;1.88;;
25559;SDS011;13450;49.374;8.584;2023-06-14T13:56:40;3.88;;;2.20;;
25559;SDS011;13450;49.374;8.584;2023-06-14T13:59:06;3.50;;;2.00;;
25559;SDS011;13450;49.374;8.584;2023-06-14T14:01:31;3.33;;;2.03;;
25559;SDS011;13450;49.374;8.584;2023-06-14T14:04:01;6.07;;;2.35;;
25559;SDS011;13450;49.374;8.584;2023-06-14T14:08:52;4.93;;;1.98;;
25559;SDS011;13450;49.374;8.584;2023-06-14T14:11:18;5.88;;;2.35;;
25559;SDS011;13450;49.374;8.584;2023-06-14T14:13:47;3.75;;;2.17;;
25559;SDS011;13450;49.374;8.584;2023-06-14T14:16:12;4.45;;;2.22;;
25559;SDS011;13450;49.374;8.584;2023-06-14T14:18:38;3.72;;;2.10;;
25559;SDS011;13450;49.374;8.584;2023-06-14T14:21:04;4.25;;;2.13;;
25559;SDS011;13450;49.374;8.584;2023-06-14T14:23:30;7.30;;;2.40;;
25559;SDS011;13450;49.374;8.584;2023-06-14T14:25:55;3.67;;;1.83;;
25559;SDS011;13450;49.374;8.584;2023-06-14T14:28:25;4.85;;;2.13;;
25559;SDS011;13450;49.374;8.584;2023-06-14T14:30:51;3.53;;;2.03;;
25559;SDS011;13450;49.374;8.584;2023-06-14T14:33:18;4.10;;;1.80;;
25559;SDS011;13450;49.374;8.584;2023-06-14T14:35:44;3.80;;;2.28;;
25559;SDS011;13450;49.374;8.584;2023-06-14T14:38:13;4.03;;;2.00;;
25559;SDS011;13450;49.374;8.584;2023-06-14T14:40:43;6.97;;;2.30;;
25559;SDS011;13450;49.374;8.584;2023-06-14T14:43:11;4.78;;;1.98;;
25559;SDS011;13450;49.374;8.584;2023-06-14T14:45:36;3.85;;;2.05;;
25559;SDS011;13450;49.374;8.584;2023-06-14T14:48:02;4.93;;;1.60;;
25559;SDS011;13450;49.374;8.584;2023-06-14T14:50:28;3.55;;;2.15;;
25559;SDS011;13450;49.374;8.584;2023-06-14T14:52:53;3.58;;;2.00;;
25559;SDS011;13450;49.374;8.584;2023-06-14T14:55:19;4.90;;;2.13;;
25559;SDS011;13450;49.374;8.584;2023-06-14T14:57:45;5.93;;;2.03;;
25559;SDS011;13450;49.374;8.584;2023-06-14T15:00:13;4.03;;;2.10;;
25559;SDS011;13450;49.374;8.584;2023-06-14T15:02:39;3.88;;;2.10;;
25559;SDS011;13450;49.374;8.584;2023-06-14T15:05:05;3.90;;;2.13;;
25559;SDS011;13450;49.374;8.584;2023-06-14T15:07:31;3.72;;;2.00;;
25559;SDS011;13450;49.374;8.584;2023-06-14T15:09:56;3.55;;;1.63;;
25559;SDS011;13450;49.374;8.584;2023-06-14T15:12:22;3.53;;;1.85;;
25559;SDS011;13450;49.374;8.584;2023-06-14T15:14:51;4.53;;;2.15;;